sensor_id;sensor_type;location;lat;lon;timestamp;pressure;altitude;pressure_sealevel;temperature;humidity
56681;BME280;42558;52.388;13.390;2023-02-11T00:01:57;102490.23;;;1.16;93.58
56681;BME280;42558;52.388;13.390;2023-02-11T00:04:28;102477.08;;;1.14;94.03
56681;BME280;42558;52.388;13.390;2023-02-11T00:06:56;102471.96;;;1.17;94.16
56681;BME280;42558;52.388;13.390;2023-02-11T00:09:25;102472.20;;;1.20;94.00
56681;BME280;42558;52.388;13.390;2023-02-11T00:11:53;102463.77;;;1.30;93.54
56681;BME280;42558;52.388;13.390;2023-02-11T00:14:22;102476.20;;;1.31;93.56
56681;BME280;42558;52.388;13.390;2023-02-11T00:16:50;102474.32;;;1.36;93.06
56681;BME280;42558;52.388;13.390;2023-02-11T00:19:19;102482.83;;;1.29;93.43
56681;BME280;42558;52.388;13.390;2023-02-11T00:21:47;102485.34;;;1.31;93.36
56681;BME280;42558;52.388;13.390;2023-02-11T00:24:15;102489.19;;;1.31;93.30
56681;BME280;42558;52.388;13.390;2023-02-11T00:26:44;102499.48;;;1.32;93.41
56681;BME280;42558;52.388;13.390;2023-02-11T00:29:12;102497.24;;;1.35;93.41
56681;BME280;42558;52.388;13.390;2023-02-11T00:31:41;102506.07;;;1.30;93.51
56681;BME280;42558;52.388;13.390;2023-02-11T00:34:09;102503.85;;;1.22;94.10
56681;BME280;42558;52.388;13.390;2023-02-11T00:36:38;102503.43;;;1.31;93.89
56681;BME280;42558;52.388;13.390;2023-02-11T00:39:07;102494.77;;;1.29;93.89
56681;BME280;42558;52.388;13.390;2023-02-11T00:41:35;102483.35;;;1.25;94.08
56681;BME280;42558;52.388;13.390;2023-02-11T00:44:03;102482.12;;;1.23;94.81
56681;BME280;42558;52.388;13.390;2023-02-11T00:46:31;102472.64;;;1.23;94.90
56681;BME280;42558;52.388;13.390;2023-02-11T00:49:00;102469.09;;;1.22;95.07
56681;BME280;42558;52.388;13.390;2023-02-11T00:51:28;102470.20;;;1.23;95.30
56681;BME280;42558;52.388;13.390;2023-02-11T00:53:57;102478.58;;;1.26;95.10
56681;BME280;42558;52.388;13.390;2023-02-11T00:56:25;102490.29;;;1.27;94.96
56681;BME280;42558;52.388;13.390;2023-02-11T00:58:54;102500.08;;;1.26;95.39
56681;BME280;42558;52.388;13.390;2023-02-11T01:01:23;102501.16;;;1.29;95.32
56681;BME280;42558;52.388;13.390;2023-02-11T01:03:51;102501.46;;;1.26;95.29
56681;BME280;42558;52.388;13.390;2023-02-11T01:06:19;102496.67;;;1.25;95.41
56681;BME280;42558;52.388;13.390;2023-02-11T01:08:47;102487.17;;;1.27;95.41
56681;BME280;42558;52.388;13.390;2023-02-11T01:11:19;102477.73;;;1.27;95.23
56681;BME280;42558;52.388;13.390;2023-02-11T01:13:49;102475.70;;;1.27;95.79
56681;BME280;42558;52.388;13.390;2023-02-11T01:16:19;102472.92;;;1.27;95.60
56681;BME280;42558;52.388;13.390;2023-02-11T01:18:49;102464.98;;;1.25;95.79
56681;BME280;42558;52.388;13.390;2023-02-11T01:21:19;102459.02;;;1.25;96.09
56681;BME280;42558;52.388;13.390;2023-02-11T01:23:49;102453.02;;;1.25;96.39
56681;BME280;42558;52.388;13.390;2023-02-11T01:26:18;102448.96;;;1.33;96.09
56681;BME280;42558;52.388;13.390;2023-02-11T01:28:48;102437.33;;;1.37;95.57
56681;BME280;42558;52.388;13.390;2023-02-11T01:31:18;102425.58;;;1.38;95.43
56681;BME280;42558;52.388;13.390;2023-02-11T01:33:48;102420.38;;;1.42;95.48
56681;BME280;42558;52.388;13.390;2023-02-11T01:36:17;102419.27;;;1.37;95.66
56681;BME280;42558;52.388;13.390;2023-02-11T01:38:47;102416.20;;;1.38;95.69
56681;BME280;42558;52.388;13.390;2023-02-11T01:41:16;102419.96;;;1.37;95.90
56681;BME280;42558;52.388;13.390;2023-02-11T01:43:48;102417.21;;;1.40;96.08
56681;BME280;42558;52.388;13.390;2023-02-11T01:46:35;102422.02;;;1.43;95.97
56681;BME280;42558;52.388;13.390;2023-02-11T01:49:14;102414.13;;;1.53;95.84
56681;BME280;42558;52.388;13.390;2023-02-11T01:54:23;102399.81;;;1.56;95.70
56681;BME280;42558;52.388;13.390;2023-02-11T01:57:17;102401.72;;;1.50;96.10
56681;BME280;42558;52.388;13.390;2023-02-11T02:06:06;102382.44;;;1.65;96.09
56681;BME280;42558;52.388;13.390;2023-02-11T02:09:09;102380.08;;;1.71;95.75
56681;BME280;42558;52.388;13.390;2023-02-11T02:11:39;102375.66;;;1.67;96.11
56681;BME280;42558;52.388;13.390;2023-02-11T02:14:09;102375.48;;;1.72;96.12
56681;BME280;42558;52.388;13.390;2023-02-11T02:16:39;102378.32;;;1.70;96.17
56681;BME280;42558;52.388;13.390;2023-02-11T02:26:18;102366.77;;;1.94;95.71
56681;BME280;42558;52.388;13.390;2023-02-11T02:29:05;102362.06;;;1.92;95.63
56681;BME280;42558;52.388;13.390;2023-02-11T02:35:28;102366.48;;;2.00;95.81
56681;BME280;42558;52.388;13.390;2023-02-11T02:38:12;102363.05;;;1.96;96.05
56681;BME280;42558;52.388;13.390;2023-02-11T02:40:49;102359.88;;;2.07;96.16
56681;BME280;42558;52.388;13.390;2023-02-11T02:43:22;102357.77;;;2.06;95.66
56681;BME280;42558;52.388;13.390;2023-02-11T02:45:54;102360.73;;;2.06;95.82
56681;BME280;42558;52.388;13.390;2023-02-11T02:48:30;102359.11;;;1.99;96.09
56681;BME280;42558;52.388;13.390;2023-02-11T02:52:02;102349.05;;;2.06;96.49
56681;BME280;42558;52.388;13.390;2023-02-11T02:55:29;102342.59;;;2.01;96.41
56681;BME280;42558;52.388;13.390;2023-02-11T03:02:04;102338.42;;;2.03;96.84
56681;BME280;42558;52.388;13.390;2023-02-11T03:10:18;102328.95;;;2.06;96.85
56681;BME280;42558;52.388;13.390;2023-02-11T03:12:50;102323.42;;;2.04;96.99
56681;BME280;42558;52.388;13.390;2023-02-11T03:15:21;102320.64;;;2.04;96.82
56681;BME280;42558;52.388;13.390;2023-02-11T03:17:53;102320.07;;;2.06;96.88
56681;BME280;42558;52.388;13.390;2023-02-11T03:20:29;102314.95;;;2.09;96.90
56681;BME280;42558;52.388;13.390;2023-02-11T03:23:40;102306.33;;;2.07;96.75
56681;BME280;42558;52.388;13.390;2023-02-11T03:26:25;102308.29;;;2.13;96.98
56681;BME280;42558;52.388;13.390;2023-02-11T03:29:17;102312.80;;;2.15;96.41
56681;BME280;42558;52.388;13.390;2023-02-11T03:32:14;102319.30;;;2.14;96.65
56681;BME280;42558;52.388;13.390;2023-02-11T03:35:19;102317.67;;;2.15;96.69
56681;BME280;42558;52.388;13.390;2023-02-11T03:37:54;102319.14;;;2.12;97.18
56681;BME280;42558;52.388;13.390;2023-02-11T03:40:31;102326.17;;;2.20;97.61
56681;BME280;42558;52.388;13.390;2023-02-11T03:43:25;102327.44;;;2.21;97.14
56681;BME280;42558;52.388;13.390;2023-02-11T03:45:58;102333.16;;;2.21;97.45
56681;BME280;42558;52.388;13.390;2023-02-11T03:48:37;102332.75;;;2.25;97.57
56681;BME280;42558;52.388;13.390;2023-02-11T03:51:11;102320.68;;;2.28;97.67
56681;BME280;42558;52.388;13.390;2023-02-11T03:53:44;102319.33;;;2.24;97.75
56681;BME280;42558;52.388;13.390;2023-02-11T03:56:20;102322.37;;;2.23;98.35
56681;BME280;42558;52.388;13.390;2023-02-11T03:58:51;102317.52;;;2.25;98.47
56681;BME280;42558;52.388;13.390;2023-02-11T04:01:21;102323.95;;;2.23;98.88
56681;BME280;42558;52.388;13.390;2023-02-11T04:03:51;102325.59;;;2.24;99.10
56681;BME280;42558;52.388;13.390;2023-02-11T04:06:22;102326.65;;;2.25;99.19
56681;BME280;42558;52.388;13.390;2023-02-11T04:08:51;102322.23;;;2.26;99.32
56681;BME280;42558;52.388;13.390;2023-02-11T04:11:21;102314.83;;;2.24;99.70
56681;BME280;42558;52.388;13.390;2023-02-11T04:13:51;102312.98;;;2.30;99.95
56681;BME280;42558;52.388;13.390;2023-02-11T04:16:21;102318.80;;;2.36;99.92
56681;BME280;42558;52.388;13.390;2023-02-11T04:18:51;102311.90;;;2.39;99.72
56681;BME280;42558;52.388;13.390;2023-02-11T04:21:21;102315.30;;;2.42;99.88
56681;BME280;42558;52.388;13.390;2023-02-11T04:23:51;102322.23;;;2.42;99.93
56681;BME280;42558;52.388;13.390;2023-02-11T04:26:21;102328.11;;;2.44;100.00
56681;BME280;42558;52.388;13.390;2023-02-11T04:28:51;102323.73;;;2.49;100.00
56681;BME280;42558;52.388;13.390;2023-02-11T04:31:19;102318.27;;;2.48;100.00
56681;BME280;42558;52.388;13.390;2023-02-11T04:33:48;102324.10;;;2.44;100.00
56681;BME280;42558;52.388;13.390;2023-02-11T04:36:16;102321.11;;;2.49;100.00
56681;BME280;42558;52.388;13.390;2023-02-11T04:38:45;102313.00;;;2.47;100.00
56681;BME280;42558;52.388;13.390;2023-02-11T04:41:13;102305.38;;;2.52;100.00
56681;BME280;42558;52.388;13.390;2023-02-11T04:43:41;102307.05;;;2.52;100.00
56681;BME280;42558;52.388;13.390;2023-02-11T04:46:10;102308.83;;;2.59;100.00
56681;BME280;42558;52.388;13.390;2023-02-11T04:48:38;102305.94;;;2.60;100.00
56681;BME280;42558;52.388;13.390;2023-02-11T04:51:07;102302.33;;;2.61;100.00
56681;BME280;42558;52.388;13.390;2023-02-11T04:53:35;102292.77;;;2.65;100.00
56681;BME280;42558;52.388;13.390;2023-02-11T04:56:04;102290.46;;;2.75;100.00
56681;BME280;42558;52.388;13.390;2023-02-11T04:58:32;102287.64;;;2.71;100.00
56681;BME280;42558;52.388;13.390;2023-02-11T05:01:09;102284.98;;;2.70;100.00
56681;BME280;42558;52.388;13.390;2023-02-11T05:03:41;102282.68;;;2.70;100.00
56681;BME280;42558;52.388;13.390;2023-02-11T05:06:12;102284.02;;;2.69;100.00
56681;BME280;42558;52.388;13.390;2023-02-11T05:08:42;102277.08;;;2.69;100.00
56681;BME280;42558;52.388;13.390;2023-02-11T05:11:18;102274.28;;;2.67;100.00
56681;BME280;42558;52.388;13.390;2023-02-11T05:13:47;102267.98;;;2.63;100.00
56681;BME280;42558;52.388;13.390;2023-02-11T05:16:17;102268.90;;;2.64;100.00
56681;BME280;42558;52.388;13.390;2023-02-11T05:18:44;102260.64;;;2.65;100.00
56681;BME280;42558;52.388;13.390;2023-02-11T05:21:17;102252.96;;;2.70;100.00
56681;BME280;42558;52.388;13.390;2023-02-11T05:23:44;102246.55;;;2.72;100.00
56681;BME280;42558;52.388;13.390;2023-02-11T05:26:13;102247.09;;;2.81;100.00
56681;BME280;42558;52.388;13.390;2023-02-11T05:28:42;102241.67;;;2.87;100.00
56681;BME280;42558;52.388;13.390;2023-02-11T05:31:10;102239.75;;;2.82;100.00
56681;BME280;42558;52.388;13.390;2023-02-11T05:33:38;102238.80;;;2.76;100.00
56681;BME280;42558;52.388;13.390;2023-02-11T05:36:10;102230.48;;;2.81;100.00
56681;BME280;42558;52.388;13.390;2023-02-11T05:38:40;102226.37;;;2.84;100.00
56681;BME280;42558;52.388;13.390;2023-02-11T05:41:11;102227.68;;;2.93;100.00
56681;BME280;42558;52.388;13.390;2023-02-11T05:43:41;102226.75;;;2.95;100.00
56681;BME280;42558;52.388;13.390;2023-02-11T05:46:11;102222.70;;;2.99;100.00
56681;BME280;42558;52.388;13.390;2023-02-11T05:48:41;102218.30;;;3.04;100.00
56681;BME280;42558;52.388;13.390;2023-02-11T05:51:10;102218.20;;;3.05;100.00
56681;BME280;42558;52.388;13.390;2023-02-11T05:53:40;102213.76;;;3.03;100.00
56681;BME280;42558;52.388;13.390;2023-02-11T05:56:10;102201.05;;;3.06;100.00
56681;BME280;42558;52.388;13.390;2023-02-11T05:58:41;102202.96;;;3.06;100.00
56681;BME280;42558;52.388;13.390;2023-02-11T06:01:10;102210.00;;;3.12;100.00
56681;BME280;42558;52.388;13.390;2023-02-11T06:03:40;102211.44;;;3.10;100.00
56681;BME280;42558;52.388;13.390;2023-02-11T06:06:11;102216.20;;;3.04;100.00
56681;BME280;42558;52.388;13.390;2023-02-11T06:08:40;102219.27;;;3.00;100.00
56681;BME280;42558;52.388;13.390;2023-02-11T06:11:14;102221.20;;;3.03;100.00
56681;BME280;42558;52.388;13.390;2023-02-11T06:13:43;102215.88;;;3.12;100.00
56681;BME280;42558;52.388;13.390;2023-02-11T06:16:13;102223.94;;;3.13;100.00
56681;BME280;42558;52.388;13.390;2023-02-11T06:18:43;102225.23;;;3.04;100.00
56681;BME280;42558;52.388;13.390;2023-02-11T06:21:13;102237.56;;;2.98;100.00
56681;BME280;42558;52.388;13.390;2023-02-11T06:23:42;102236.52;;;3.01;100.00
56681;BME280;42558;52.388;13.390;2023-02-11T06:26:21;102233.99;;;3.15;100.00
56681;BME280;42558;52.388;13.390;2023-02-11T06:28:50;102233.48;;;3.17;100.00
56681;BME280;42558;52.388;13.390;2023-02-11T06:31:20;102235.05;;;3.15;100.00
56681;BME280;42558;52.388;13.390;2023-02-11T06:33:50;102239.69;;;3.20;100.00
56681;BME280;42558;52.388;13.390;2023-02-11T06:36:21;102242.80;;;3.17;100.00
56681;BME280;42558;52.388;13.390;2023-02-11T06:38:51;102236.90;;;3.32;100.00
56681;BME280;42558;52.388;13.390;2023-02-11T06:41:19;102230.05;;;3.36;100.00
56681;BME280;42558;52.388;13.390;2023-02-11T06:43:51;102234.73;;;3.28;100.00
56681;BME280;42558;52.388;13.390;2023-02-11T06:46:19;102229.64;;;3.25;100.00
56681;BME280;42558;52.388;13.390;2023-02-11T06:48:48;102220.58;;;3.27;100.00
56681;BME280;42558;52.388;13.390;2023-02-11T06:51:16;102218.98;;;3.24;100.00
56681;BME280;42558;52.388;13.390;2023-02-11T06:53:46;102226.00;;;3.25;100.00
56681;BME280;42558;52.388;13.390;2023-02-11T06:56:19;102224.41;;;3.28;100.00
56681;BME280;42558;52.388;13.390;2023-02-11T06:58:51;102219.52;;;3.27;100.00
56681;BME280;42558;52.388;13.390;2023-02-11T07:01:23;102214.32;;;3.25;100.00
56681;BME280;42558;52.388;13.390;2023-02-11T07:03:52;102215.39;;;3.30;100.00
56681;BME280;42558;52.388;13.390;2023-02-11T07:06:25;102215.61;;;3.36;100.00
56681;BME280;42558;52.388;13.390;2023-02-11T07:08:55;102223.20;;;3.35;100.00
56681;BME280;42558;52.388;13.390;2023-02-11T07:11:27;102224.59;;;3.36;100.00
56681;BME280;42558;52.388;13.390;2023-02-11T07:14:03;102223.68;;;3.40;100.00
56681;BME280;42558;52.388;13.390;2023-02-11T07:16:31;102216.60;;;3.51;100.00
56681;BME280;42558;52.388;13.390;2023-02-11T07:19:02;102216.48;;;3.52;100.00
56681;BME280;42558;52.388;13.390;2023-02-11T07:21:32;102214.52;;;3.60;100.00
56681;BME280;42558;52.388;13.390;2023-02-11T07:24:06;102202.05;;;3.63;100.00
56681;BME280;42558;52.388;13.390;2023-02-11T07:26:37;102196.71;;;3.61;100.00
56681;BME280;42558;52.388;13.390;2023-02-11T07:29:05;102194.73;;;3.57;100.00
56681;BME280;42558;52.388;13.390;2023-02-11T07:31:35;102191.89;;;3.62;100.00
56681;BME280;42558;52.388;13.390;2023-02-11T07:34:05;102194.80;;;3.64;100.00
56681;BME280;42558;52.388;13.390;2023-02-11T07:36:35;102198.75;;;3.71;100.00
56681;BME280;42558;52.388;13.390;2023-02-11T07:39:05;102191.33;;;3.77;100.00
56681;BME280;42558;52.388;13.390;2023-02-11T07:41:35;102187.67;;;3.80;100.00
56681;BME280;42558;52.388;13.390;2023-02-11T07:44:06;102182.35;;;3.81;100.00
56681;BME280;42558;52.388;13.390;2023-02-11T07:46:36;102183.15;;;3.91;100.00
56681;BME280;42558;52.388;13.390;2023-02-11T07:49:06;102177.88;;;4.01;100.00
56681;BME280;42558;52.388;13.390;2023-02-11T07:51:36;102176.55;;;4.05;100.00
56681;BME280;42558;52.388;13.390;2023-02-11T07:54:06;102174.05;;;4.09;100.00
56681;BME280;42558;52.388;13.390;2023-02-11T07:56:34;102178.40;;;4.09;100.00
56681;BME280;42558;52.388;13.390;2023-02-11T07:59:03;102189.23;;;4.07;100.00
56681;BME280;42558;52.388;13.390;2023-02-11T08:01:32;102190.02;;;4.17;100.00
56681;BME280;42558;52.388;13.390;2023-02-11T08:04:01;102190.48;;;4.19;100.00
56681;BME280;42558;52.388;13.390;2023-02-11T08:06:32;102189.69;;;4.17;100.00
56681;BME280;42558;52.388;13.390;2023-02-11T08:09:06;102194.05;;;4.21;100.00
56681;BME280;42558;52.388;13.390;2023-02-11T08:11:36;102195.83;;;4.23;100.00
56681;BME280;42558;52.388;13.390;2023-02-11T08:14:03;102187.93;;;4.25;100.00
56681;BME280;42558;52.388;13.390;2023-02-11T08:16:35;102189.53;;;4.29;100.00
56681;BME280;42558;52.388;13.390;2023-02-11T08:19:12;102199.74;;;4.28;100.00
56681;BME280;42558;52.388;13.390;2023-02-11T08:21:43;102206.39;;;4.34;100.00
56681;BME280;42558;52.388;13.390;2023-02-11T08:24:11;102220.88;;;4.40;100.00
56681;BME280;42558;52.388;13.390;2023-02-11T08:26:40;102226.52;;;4.50;100.00
56681;BME280;42558;52.388;13.390;2023-02-11T08:29:13;102237.89;;;4.53;100.00
56681;BME280;42558;52.388;13.390;2023-02-11T08:31:46;102229.16;;;4.56;100.00
56681;BME280;42558;52.388;13.390;2023-02-11T08:34:15;102229.77;;;4.57;100.00
56681;BME280;42558;52.388;13.390;2023-02-11T08:36:46;102233.66;;;4.58;100.00
56681;BME280;42558;52.388;13.390;2023-02-11T08:39:19;102233.14;;;4.58;100.00
56681;BME280;42558;52.388;13.390;2023-02-11T08:41:51;102238.30;;;4.60;100.00
56681;BME280;42558;52.388;13.390;2023-02-11T08:44:21;102242.32;;;4.66;100.00
56681;BME280;42558;52.388;13.390;2023-02-11T08:46:51;102237.52;;;4.61;100.00
56681;BME280;42558;52.388;13.390;2023-02-11T08:49:21;102241.73;;;4.59;100.00
56681;BME280;42558;52.388;13.390;2023-02-11T08:51:51;102238.10;;;4.51;100.00
56681;BME280;42558;52.388;13.390;2023-02-11T08:54:22;102240.02;;;4.57;100.00
56681;BME280;42558;52.388;13.390;2023-02-11T08:56:52;102236.27;;;4.61;100.00
56681;BME280;42558;52.388;13.390;2023-02-11T08:59:22;102221.79;;;4.63;100.00
56681;BME280;42558;52.388;13.390;2023-02-11T09:01:52;102206.74;;;4.62;100.00
56681;BME280;42558;52.388;13.390;2023-02-11T09:04:22;102201.39;;;4.63;100.00
56681;BME280;42558;52.388;13.390;2023-02-11T09:06:52;102193.65;;;4.62;100.00
56681;BME280;42558;52.388;13.390;2023-02-11T09:09:22;102191.90;;;4.65;100.00
56681;BME280;42558;52.388;13.390;2023-02-11T09:11:52;102198.90;;;4.69;100.00
56681;BME280;42558;52.388;13.390;2023-02-11T09:14:26;102199.23;;;4.71;100.00
56681;BME280;42558;52.388;13.390;2023-02-11T09:16:55;102198.16;;;4.68;100.00
56681;BME280;42558;52.388;13.390;2023-02-11T09:19:25;102203.33;;;4.70;100.00
56681;BME280;42558;52.388;13.390;2023-02-11T09:21:55;102206.92;;;4.74;100.00
56681;BME280;42558;52.388;13.390;2023-02-11T09:24:25;102212.44;;;4.67;100.00
56681;BME280;42558;52.388;13.390;2023-02-11T09:26:55;102216.02;;;4.72;100.00
56681;BME280;42558;52.388;13.390;2023-02-11T09:29:25;102214.44;;;4.72;100.00
56681;BME280;42558;52.388;13.390;2023-02-11T09:31:54;102222.14;;;4.73;100.00
56681;BME280;42558;52.388;13.390;2023-02-11T09:34:24;102232.27;;;4.76;100.00
56681;BME280;42558;52.388;13.390;2023-02-11T09:36:54;102237.91;;;4.77;100.00
56681;BME280;42558;52.388;13.390;2023-02-11T09:39:24;102224.84;;;4.71;100.00
56681;BME280;42558;52.388;13.390;2023-02-11T09:45:18;102232.30;;;4.79;100.00
56681;BME280;42558;52.388;13.390;2023-02-11T09:48:17;102237.56;;;4.80;100.00
56681;BME280;42558;52.388;13.390;2023-02-11T09:50:53;102234.78;;;4.85;100.00
56681;BME280;42558;52.388;13.390;2023-02-11T09:53:41;102243.89;;;4.86;100.00
56681;BME280;42558;52.388;13.390;2023-02-11T09:56:13;102249.17;;;4.84;100.00
56681;BME280;42558;52.388;13.390;2023-02-11T09:58:44;102250.64;;;4.88;100.00
56681;BME280;42558;52.388;13.390;2023-02-11T10:02:01;102257.66;;;4.89;100.00
56681;BME280;42558;52.388;13.390;2023-02-11T10:05:08;102266.08;;;4.87;100.00
56681;BME280;42558;52.388;13.390;2023-02-11T10:08:00;102271.64;;;4.90;100.00
56681;BME280;42558;52.388;13.390;2023-02-11T10:10:43;102273.04;;;4.95;100.00
56681;BME280;42558;52.388;13.390;2023-02-11T10:19:19;102271.28;;;5.01;100.00
56681;BME280;42558;52.388;13.390;2023-02-11T10:22:16;102277.61;;;5.02;100.00
56681;BME280;42558;52.388;13.390;2023-02-11T10:24:53;102272.56;;;5.02;100.00
56681;BME280;42558;52.388;13.390;2023-02-11T10:27:32;102271.45;;;4.98;100.00
56681;BME280;42558;52.388;13.390;2023-02-11T10:30:22;102264.49;;;4.96;100.00
56681;BME280;42558;52.388;13.390;2023-02-11T10:33:30;102264.87;;;4.96;100.00
56681;BME280;42558;52.388;13.390;2023-02-11T10:36:03;102273.89;;;5.01;100.00
56681;BME280;42558;52.388;13.390;2023-02-11T10:38:33;102279.84;;;4.98;100.00
56681;BME280;42558;52.388;13.390;2023-02-11T10:41:05;102275.23;;;5.00;100.00
56681;BME280;42558;52.388;13.390;2023-02-11T10:43:41;102272.48;;;5.01;100.00
56681;BME280;42558;52.388;13.390;2023-02-11T10:46:20;102273.80;;;5.00;100.00
56681;BME280;42558;52.388;13.390;2023-02-11T10:48:52;102268.66;;;4.98;100.00
56681;BME280;42558;52.388;13.390;2023-02-11T10:51:32;102257.91;;;5.02;100.00
56681;BME280;42558;52.388;13.390;2023-02-11T10:56:39;102244.02;;;5.00;100.00
56681;BME280;42558;52.388;13.390;2023-02-11T10:59:33;102243.23;;;4.95;100.00
56681;BME280;42558;52.388;13.390;2023-02-11T11:02:23;102258.59;;;4.96;100.00
56681;BME280;42558;52.388;13.390;2023-02-11T11:05:00;102264.99;;;5.01;100.00
56681;BME280;42558;52.388;13.390;2023-02-11T11:07:33;102261.73;;;4.99;100.00
56681;BME280;42558;52.388;13.390;2023-02-11T11:10:45;102251.88;;;5.00;100.00
56681;BME280;42558;52.388;13.390;2023-02-11T11:13:41;102235.27;;;5.05;100.00
56681;BME280;42558;52.388;13.390;2023-02-11T11:19:33;102229.88;;;4.99;100.00
56681;BME280;42558;52.388;13.390;2023-02-11T11:21:46;102230.89;;;4.99;100.00
56681;BME280;42558;52.388;13.390;2023-02-11T11:24:54;102235.76;;;4.99;100.00
56681;BME280;42558;52.388;13.390;2023-02-11T11:27:25;102235.61;;;4.96;100.00
56681;BME280;42558;52.388;13.390;2023-02-11T11:29:55;102232.29;;;4.96;100.00
56681;BME280;42558;52.388;13.390;2023-02-11T11:32:31;102229.76;;;4.97;100.00
56681;BME280;42558;52.388;13.390;2023-02-11T11:35:16;102229.75;;;5.03;100.00
56681;BME280;42558;52.388;13.390;2023-02-11T11:38:01;102233.27;;;5.06;100.00
56681;BME280;42558;52.388;13.390;2023-02-11T11:40:36;102235.77;;;5.02;100.00
56681;BME280;42558;52.388;13.390;2023-02-11T11:45:59;102244.74;;;5.00;100.00
56681;BME280;42558;52.388;13.390;2023-02-11T11:48:37;102251.84;;;5.05;100.00
56681;BME280;42558;52.388;13.390;2023-02-11T11:51:12;102248.33;;;5.02;100.00
56681;BME280;42558;52.388;13.390;2023-02-11T11:54:03;102250.40;;;5.07;100.00
56681;BME280;42558;52.388;13.390;2023-02-11T11:56:59;102248.60;;;5.04;100.00
56681;BME280;42558;52.388;13.390;2023-02-11T11:59:30;102255.20;;;5.06;100.00
56681;BME280;42558;52.388;13.390;2023-02-11T12:05:11;102241.77;;;5.09;100.00
56681;BME280;42558;52.388;13.390;2023-02-11T12:08:20;102236.48;;;5.14;100.00
56681;BME280;42558;52.388;13.390;2023-02-11T12:13:56;102238.87;;;5.18;100.00
56681;BME280;42558;52.388;13.390;2023-02-11T12:22:17;102243.52;;;5.24;100.00
56681;BME280;42558;52.388;13.390;2023-02-11T12:34:09;102228.45;;;5.25;100.00
56681;BME280;42558;52.388;13.390;2023-02-11T12:39:48;102233.44;;;5.30;100.00
56681;BME280;42558;52.388;13.390;2023-02-11T12:54:55;102222.42;;;5.36;100.00
56681;BME280;42558;52.388;13.390;2023-02-11T12:57:31;102220.08;;;5.43;100.00
56681;BME280;42558;52.388;13.390;2023-02-11T13:00:18;102222.72;;;5.50;100.00
56681;BME280;42558;52.388;13.390;2023-02-11T13:05:56;102225.21;;;5.51;100.00
56681;BME280;42558;52.388;13.390;2023-02-11T13:08:32;102224.45;;;5.56;100.00
56681;BME280;42558;52.388;13.390;2023-02-11T13:14:21;102230.08;;;5.59;100.00
56681;BME280;42558;52.388;13.390;2023-02-11T13:16:54;102239.88;;;5.69;100.00
56681;BME280;42558;52.388;13.390;2023-02-11T13:19:42;102243.45;;;5.77;100.00
56681;BME280;42558;52.388;13.390;2023-02-11T13:22:34;102240.64;;;5.80;100.00
56681;BME280;42558;52.388;13.390;2023-02-11T13:31:10;102249.38;;;5.80;100.00
56681;BME280;42558;52.388;13.390;2023-02-11T13:33:42;102260.13;;;5.82;100.00
56681;BME280;42558;52.388;13.390;2023-02-11T13:36:22;102264.73;;;5.83;100.00
56681;BME280;42558;52.388;13.390;2023-02-11T13:39:03;102270.48;;;5.89;100.00
56681;BME280;42558;52.388;13.390;2023-02-11T13:41:40;102278.13;;;5.85;100.00
56681;BME280;42558;52.388;13.390;2023-02-11T13:44:19;102280.27;;;5.83;100.00
56681;BME280;42558;52.388;13.390;2023-02-11T13:46:58;102272.73;;;5.85;100.00
56681;BME280;42558;52.388;13.390;2023-02-11T13:49:37;102272.26;;;5.83;100.00
56681;BME280;42558;52.388;13.390;2023-02-11T13:55:07;102272.36;;;5.88;100.00
56681;BME280;42558;52.388;13.390;2023-02-11T13:57:40;102280.54;;;5.93;100.00
56681;BME280;42558;52.388;13.390;2023-02-11T14:11:50;102288.80;;;5.85;100.00
56681;BME280;42558;52.388;13.390;2023-02-11T14:14:23;102289.50;;;5.88;100.00
56681;BME280;42558;52.388;13.390;2023-02-11T14:19:42;102290.63;;;5.84;100.00
56681;BME280;42558;52.388;13.390;2023-02-11T14:22:39;102293.71;;;5.92;100.00
56681;BME280;42558;52.388;13.390;2023-02-11T14:25:25;102298.30;;;5.87;100.00
56681;BME280;42558;52.388;13.390;2023-02-11T14:28:27;102295.03;;;5.85;100.00
56681;BME280;42558;52.388;13.390;2023-02-11T14:31:13;102296.64;;;5.85;100.00
56681;BME280;42558;52.388;13.390;2023-02-11T14:36:57;102293.15;;;5.82;100.00
56681;BME280;42558;52.388;13.390;2023-02-11T14:42:26;102289.20;;;5.80;100.00
56681;BME280;42558;52.388;13.390;2023-02-11T14:45:06;102289.64;;;5.82;100.00
56681;BME280;42558;52.388;13.390;2023-02-11T14:48:06;102290.21;;;5.80;100.00
56681;BME280;42558;52.388;13.390;2023-02-11T14:50:58;102290.02;;;5.80;100.00
56681;BME280;42558;52.388;13.390;2023-02-11T14:53:32;102294.74;;;5.80;100.00
56681;BME280;42558;52.388;13.390;2023-02-11T14:56:16;102300.30;;;5.82;100.00
56681;BME280;42558;52.388;13.390;2023-02-11T14:58:48;102299.58;;;5.82;100.00
56681;BME280;42558;52.388;13.390;2023-02-11T15:03:54;102313.92;;;5.79;100.00
56681;BME280;42558;52.388;13.390;2023-02-11T15:06:40;102309.70;;;5.82;100.00
56681;BME280;42558;52.388;13.390;2023-02-11T15:09:18;102309.74;;;5.83;100.00
56681;BME280;42558;52.388;13.390;2023-02-11T15:11:50;102309.03;;;5.82;100.00
56681;BME280;42558;52.388;13.390;2023-02-11T15:17:05;102318.66;;;5.83;100.00
56681;BME280;42558;52.388;13.390;2023-02-11T15:19:46;102316.33;;;5.82;100.00
56681;BME280;42558;52.388;13.390;2023-02-11T15:22:25;102321.15;;;5.80;100.00
56681;BME280;42558;52.388;13.390;2023-02-11T15:27:52;102331.17;;;5.79;100.00
56681;BME280;42558;52.388;13.390;2023-02-11T15:30:32;102329.66;;;5.77;100.00